• Join FlightAware (Why Join?)
  • Login
  • US Flag 
11:22AM EDT


 

Airport Tracker/Info


-or-


 

Live Flight TrackerFlight Track Log ✈ N6101G ✈ 14-Oct-2013 ✈ KHPN - KCLT

Flight Track Log - Related Links

Times and Time Zones

All times are in EDT time to prevent confusion due to time zone crossing. See the N6101G flight status page for this flight to view local times or setup timezone preferences in your user account.

Time Position Orientation Groundspeed Altitude Reporting Facility
EDT Latitude Longitude Course Direction KTS MPH feet Rate Location/Type
03:32PM 40.0710 -75.4600 227° Southwest 100 115 24,000  Level FlightAware
03:32PM 40.0600 -75.4750 226° Southwest 100 115 24,000  Level FlightAware
03:33PM 40.0500 -75.4890 227° Southwest 100 115 24,000  Level FlightAware
03:34PM 40.0400 -75.5030 227° Southwest 100 115 24,000  Level FlightAware
03:34PM 40.0310 -75.5170 230° Southwest 100 115 24,000  Level FlightAware
03:35PM 39.9480 -75.6300 226° Southwest 100 115 24,000  Level FlightAware
03:35PM 39.9220 -75.6650 226° Southwest 239 275 24,000  Level FlightAware
03:36PM 39.8980 -75.6970 226° Southwest 239 275 24,000  Level FlightAware
03:37PM 39.8750 -75.7290 227° Southwest 239 275 24,000  Level FlightAware
03:38PM 39.8290 -75.8130 235° Southwest 239 275 24,000  Level FlightAware
03:38PM 39.8040 -75.8560 233° Southwest 234 269 24,000  Level FlightAware
03:39PM 39.7830 -75.8900 231° Southwest 234 269 24,000  Level FlightAware
03:40PM 39.7620 -75.9250 232° Southwest 234 269 24,000  Level FlightAware
03:40PM 39.7400 -75.9610 232° Southwest 234 269 24,000  Level FlightAware
03:41PM 39.7190 -75.9960 232° Southwest 234 269 24,000  Level FlightAware
03:41PM 39.6640 -76.0760 228° Southwest 234 269 24,000  Level FlightAware
03:42PM 39.6340 -76.1240 231° Southwest 244 281 24,000  Level FlightAware
03:43PM 39.6120 -76.1580 230° Southwest 244 281 24,000  Level FlightAware
03:43PM 39.5890 -76.1930 230° Southwest 244 281 24,000  Level FlightAware
03:44PM 39.5490 -76.2600 232° Southwest 244 281 24,000  Level FlightAware
03:45PM 39.5270 -76.2950 231° Southwest 244 281 24,000  Level FlightAware
03:45PM 39.5050 -76.3300 231° Southwest 244 281 24,000  Level FlightAware
03:46PM 39.4850 -76.3630 232° Southwest 244 281 24,000  Level FlightAware
03:47PM 39.4620 -76.3990 230° Southwest 244 281 24,000  Level FlightAware
03:47PM 39.4400 -76.4340 231° Southwest 244 281 24,000  Level FlightAware
03:49PM 39.3344 -76.5897 231° Southwest 255 293 24,000  Level Washington Center
03:50PM 39.2922 -76.6617 233° Southwest 255 293 24,000  Level Washington Center
03:51PM 39.2478 -76.7281 229° Southwest 255 293 24,000  Level Washington Center
03:52PM 39.2033 -76.7969 230° Southwest 255 293 24,000  Level Washington Center
03:53PM 39.1589 -76.8658 230° Southwest 255 293 24,000  Level Washington Center
03:54PM 39.1122 -76.9344 229° Southwest 255 293 24,000  Level Washington Center
03:55PM 39.0739 -76.9981 232° Southwest 255 293 24,000  Level Washington Center
03:56PM 39.0231 -77.0639 225° Southwest 255 293 24,000  Level Washington Center
03:57PM 38.9703 -77.1214 220° Southwest 255 293 24,000  Level Washington Center
03:58PM 38.9153 -77.1817 220° Southwest 255 293 24,000  Level Washington Center
03:59PM 38.8583 -77.2444 221° Southwest 260 299 24,000  Level Washington Center
04:00PM 38.8075 -77.2992 220° Southwest 265 305 24,000  Level Washington Center
04:01PM 38.7544 -77.3567 220° Southwest 265 305 24,000  Level Washington Center
04:02PM 38.7014 -77.4167 221° Southwest 265 305 24,000  Level Washington Center
04:03PM 38.6464 -77.4764 220° Southwest 265 305 24,000  Level Washington Center
04:04PM 38.5933 -77.5333 220° Southwest 265 305 24,000  Level Washington Center
04:05PM 38.5381 -77.5931 220° Southwest 265 305 24,000  Level Washington Center
04:06PM 38.4831 -77.6497 219° Southwest 265 305 24,000  Level Washington Center
04:07PM 38.4297 -77.7094 221° Southwest 265 305 24,000  Level Washington Center
04:08PM 38.3767 -77.7661 220° Southwest 265 305 24,000  Level Washington Center
04:09PM 38.3233 -77.8256 221° Southwest 265 305 24,000  Level Washington Center
04:10PM 38.2683 -77.8819 219° Southwest 265 305 24,000  Level Washington Center
04:11PM 38.2150 -77.9383 220° Southwest 265 305 24,000  Level Washington Center
04:12PM 38.1617 -77.9975 221° Southwest 265 305 24,000  Level Washington Center
04:13PM 38.1019 -78.0617 220° Southwest 265 305 24,000  Level Washington Center
04:14PM 38.0467 -78.1178 219° Southwest 265 305 24,000  Level Washington Center
04:15PM 37.9997 -78.1689 221° Southwest 259 298 24,000  Level Washington Center
04:16PM 37.9583 -78.2386 233° Southwest 254 292 24,000  Level Washington Center
04:17PM 37.9089 -78.3106 229° Southwest 254 292 24,000  Level Washington Center
04:18PM 37.8636 -78.3772 229° Southwest 254 292 24,000  Level Washington Center
04:19PM 37.8386 -78.4581 249° West 249 287 24,000  Level Washington Center
04:20PM 37.8158 -78.5386 250° West 244 281 24,000  Level Washington Center
04:21PM 37.7933 -78.6114 249° West 249 287 24,000  Level Washington Center
04:22PM 37.7419 -78.6644 219° Southwest 242 278 24,000  Level Washington Center
04:23PM 37.6822 -78.7119 212° Southwest 242 278 24,000  Level Washington Center
04:24PM 37.6206 -78.7564 210° Southwest 254 292 24,000  Level Washington Center
04:25PM 37.5544 -78.8086 212° Southwest 259 298 24,000 -60 Level Washington Center
04:26PM 37.4947 -78.8586 214° Southwest 259 298 23,900 -540 Descending Washington Center
04:27PM 37.4331 -78.9056 211° Southwest 259 298 23,000 -900 Descending Washington Center
04:28PM 37.3689 -78.9550 211° Southwest 259 298 22,200 -540 Descending Washington Center
04:29PM 37.3072 -79.0044 213° Southwest 264 304 22,000 -120 Descending Washington Center
04:30PM 37.2517 -79.0492 213° Southwest 264 304 22,000  Level Washington Center
04:31PM 37.1897 -79.0958 211° Southwest 264 304 22,000  Level Washington Center
04:32PM 37.1278 -79.1450 212° Southwest 264 304 22,000  Level Washington Center
04:33PM 37.0681 -79.1917 212° Southwest 264 304 22,000  Level Washington Center
04:34PM 36.9975 -79.2431 210° Southwest 264 304 22,000  Level Washington Center
04:35PM 36.9375 -79.2922 213° Southwest 264 304 22,000  Level Washington Center
04:36PM 36.8756 -79.3386 211° Southwest 264 304 22,000  Level Washington Center
04:37PM 36.8158 -79.3875 213° Southwest 264 304 22,000  Level Washington Center
04:38PM 36.7600 -79.4317 212° Southwest 264 304 22,000 -720 Level Washington Center
04:40PM 36.6572 -79.5043 210° Southwest  Level FlightAware Approximate
04:47PM 36.2786 -79.7808 212° Southwest  Level FlightAware Approximate
04:48PM 36.2251 -79.8214 212° Southwest  Level FlightAware Approximate
04:49PM 36.1716 -79.8620 212° Southwest  Level FlightAware Approximate
04:50PM 36.1181 -79.9025 211° Southwest  Level FlightAware Approximate
04:51PM 36.0647 -79.9430 211° Southwest  Level FlightAware Approximate
04:52PM 36.0165 -79.9912 230° Southwest  Level FlightAware Approximate
04:53PM 35.9760 -80.0503 230° Southwest  Level FlightAware Approximate
04:54PM 35.9354 -80.1094 230° Southwest  Level FlightAware Approximate
04:55PM 35.8948 -80.1684 230° Southwest  Level FlightAware Approximate
04:56PM 35.8541 -80.2273 230° Southwest  Level FlightAware Approximate
04:56PM 35.8044 -80.3439 226° Southwest 221 254 9,000  Level Atlanta Center
04:57PM 35.8088 -80.2806 225° Southwest  Level FlightAware Approximate
04:57PM 35.7772 -80.4067 242° Southwest 222 255 8,900  Level Atlanta Center
04:58PM 35.7667 -80.3366 270° West  Level FlightAware Approximate
04:58PM 35.7539 -80.4692 245° Southwest 223 257 9,000  Level Atlanta Center
04:59PM 35.7295 -80.3946 224° Southwest  Level FlightAware Approximate
04:59PM 35.7117 -80.5222 226° Southwest 219 252 9,000  Level Atlanta Center
05:00PM 35.6846 -80.4485 224° Southwest  Level FlightAware Approximate
05:00PM 35.6567 -80.5653 212° Southwest 217 250 9,000  Level Atlanta Center
05:01PM 35.6442 -80.5074 226° Southwest  Level FlightAware Approximate
05:01PM 35.6097 -80.6083 217° Southwest 217 250 9,000  Level Atlanta Center
05:02PM 35.6009 -80.5632 226° Southwest  Level FlightAware Approximate
05:02PM 35.5589 -80.6511 214° Southwest 219 252 9,000  Level Atlanta Center
05:03PM 35.5078 -80.6942 214° Southwest 219 252 9,000  Level Atlanta Center
05:04PM 35.4506 -80.7397 213° Southwest 218 251 9,000  Level Atlanta Center
05:05PM 35.4014 -80.7647 203° Southwest 214 246 9,000  Level Atlanta Center
05:06PM 35.3372 -80.7850 194° South 212 244 9,000  Level Atlanta Center
05:07PM 35.2772 -80.8053 195° South 212 244 9,000  Level Atlanta Center
05:08PM 35.2192 -80.8253 196° South 211 243 9,000 -360 Level Atlanta Center
05:09PM 35.1692 -80.8247 179° South 188 216 8,400 -1,020 Descending Atlanta Center
05:10PM 35.1128 -80.8167 173° South 203 234 7,100 -1,260 Descending Atlanta Center
05:11PM 35.0581 -80.8086 173° South 199 229 5,900 -1,080 Descending Atlanta Center
05:12PM 34.9956 -80.8036 176° South 195 224 4,800 -900 Descending Atlanta Center
05:13PM 34.9453 -80.8031 179° South 175 201 4,000 -420 Descending Atlanta Center
05:14PM 34.8994 -80.8022 179° South 173 199 4,000  Level Atlanta Center
05:16PM 34.8586 -80.8342 213° Southwest 179 206 4,000  Level Atlanta Center
05:17PM 34.8392 -80.8881 246° West 174 200 4,000  Level Atlanta Center
05:17PM 34.8708 -80.9097 331° Northwest 153 176 4,000  Level Atlanta Center
05:18PM 34.9169 -80.9131 357° North 147 169 4,000  Level Atlanta Center
05:19PM 34.9589 -80.9189 353° North 152 175 4,000  Level Atlanta Center
05:20PM 34.9964 -80.9203 358° North 150 173 4,000  Level Atlanta Center
05:22PM 35.0467 -80.9233 357° North 143 165 4,000 -240 Level Atlanta Center
05:22PM 35.0781 -80.9272 354° North 144 166 3,600 -660 Descending Atlanta Center
05:24PM 35.1261 -80.9306 357° North 142 163 2,700 -840 Descending Atlanta Center
05:25PM 35.1575 -80.9344 354° North 123 142 1,900 -900 Descending Atlanta Center
05:26PM 35.1908 -80.9356 358° North 118 136 1,000 -900 Descending Atlanta Center